Time;durP1;ratioP1;P1;durP2;ratioP2;P2;SDS_P1;SDS_P2;PMS_P1;PMS_P2;Temp;Humidity;BMP_temperature;BMP_pressure;BME280_temperature;BME280_humidity;BME280_pressure;Samples;Min_cycle;Max_cycle;Signal;HPM_P1;HPM_P2
2024/01/31 00:02:12;;;;;;;24.87;19.13;;;6.90;1.00;;;;;;4978549;28;20491;-64
2024/01/31 00:04:43;;;;;;;27.30;20.97;;;7.00;48.10;;;;;;4977053;28;20462;-64
2024/01/31 00:07:10;;;;;;;28.73;21.60;;;7.00;1.00;;;;;;4977991;28;20509;-65
2024/01/31 00:09:38;;;;;;;26.80;20.00;;;7.00;99.90;;;;;;4977523;28;20497;-64
2024/01/31 00:12:06;;;;;;;34.17;21.17;;;7.00;1.00;;;;;;4977490;28;20468;-64
2024/01/31 00:14:33;;;;;;;24.57;19.73;;;7.00;99.90;;;;;;4978656;28;20508;-64
2024/01/31 00:17:01;;;;;;;26.27;20.23;;;7.00;1.00;;;;;;4977863;28;20535;-64
2024/01/31 00:19:28;;;;;;;36.00;21.40;;;7.00;99.90;;;;;;4977638;28;20469;-64
2024/01/31 00:21:57;;;;;;;27.70;20.60;;;7.00;99.90;;;;;;4977821;28;20527;-64
2024/01/31 00:24:24;;;;;;;29.47;21.57;;;7.00;99.90;;;;;;4977780;28;20492;-64
2024/01/31 00:26:51;;;;;;;29.03;21.60;;;7.00;1.00;;;;;;4978182;28;20560;-64
2024/01/31 00:29:19;;;;;;;29.40;21.90;;;7.00;47.50;;;;;;4977461;28;20497;-64
2024/01/31 00:31:46;;;;;;;32.47;21.80;;;7.00;1.00;;;;;;4976881;28;20436;-64
2024/01/31 00:34:14;;;;;;;28.50;22.53;;;7.00;99.90;;;;;;4977237;28;20470;-64
2024/01/31 00:36:41;;;;;;;28.53;20.37;;;7.00;99.90;;;;;;4977140;28;20736;-64
2024/01/31 00:39:11;;;;;;;28.13;22.13;;;7.00;1.00;;;;;;4977258;28;20480;-64
2024/01/31 00:41:39;;;;;;;32.37;23.47;;;7.00;99.90;;;;;;4976700;28;20466;-64
2024/01/31 00:44:06;;;;;;;32.00;23.30;;;7.00;99.90;;;;;;4976524;28;20469;-64
2024/01/31 00:46:33;;;;;;;34.73;25.83;;;7.00;99.90;;;;;;4977251;28;20477;-64
2024/01/31 00:49:04;;;;;;;29.53;23.40;;;7.00;99.90;;;;;;4977005;28;20494;-64
2024/01/31 00:51:32;;;;;;;32.37;23.03;;;6.90;99.90;;;;;;4977459;28;20828;-64
2024/01/31 00:54:00;;;;;;;34.23;23.13;;;6.90;99.90;;;;;;4977966;28;20486;-64
2024/01/31 00:56:28;;;;;;;28.77;22.70;;;6.90;99.90;;;;;;4978558;28;20531;-65
2024/01/31 00:58:56;;;;;;;31.53;23.00;;;6.80;99.90;;;;;;4977748;28;20553;-65
2024/01/31 01:01:23;;;;;;;31.20;22.60;;;6.80;99.90;;;;;;4977742;28;20561;-65
2024/01/31 01:03:50;;;;;;;29.27;22.67;;;6.90;1.00;;;;;;4977774;28;20947;-65
2024/01/31 01:06:17;;;;;;;31.10;22.37;;;6.80;99.90;;;;;;4977687;28;20470;-65
2024/01/31 01:08:45;;;;;;;26.53;20.80;;;6.80;1.00;;;;;;4977003;28;20540;-65
2024/01/31 01:11:12;;;;;;;29.77;22.90;;;6.70;99.90;;;;;;4976124;28;20462;-65
2024/01/31 01:13:41;;;;;;;29.77;22.17;;;6.80;1.00;;;;;;4975506;28;20466;-65
2024/01/31 01:16:08;;;;;;;29.97;22.27;;;6.80;1.00;;;;;;4976003;28;20469;-65
2024/01/31 01:18:35;;;;;;;29.00;22.23;;;6.80;1.00;;;;;;4978548;28;20453;-66
2024/01/31 01:21:02;;;;;;;30.60;22.47;;;6.90;1.00;;;;;;4979017;28;20469;-66
2024/01/31 01:23:29;;;;;;;30.77;22.60;;;6.90;1.00;;;;;;4979002;28;20536;-66
2024/01/31 01:25:57;;;;;;;28.17;21.83;;;6.90;23.50;;;;;;4979663;28;20557;-67
2024/01/31 01:28:24;;;;;;;28.33;21.23;;;6.90;9.70;;;;;;4982328;28;20457;-67
2024/01/31 01:30:53;;;;;;;29.60;22.43;;;6.90;78.10;;;;;;4983427;28;20468;-67
2024/01/31 01:33:20;;;;;;;27.07;21.00;;;6.80;99.90;;;;;;4982040;28;20485;-68
2024/01/31 01:35:47;;;;;;;26.77;19.23;;;6.80;99.90;;;;;;4981181;28;20470;-69
2024/01/31 01:38:14;;;;;;;25.50;17.57;;;6.80;99.90;;;;;;4980950;28;20516;-68
2024/01/31 01:40:44;;;;;;;24.57;17.13;;;6.80;99.90;;;;;;4982098;28;20561;-68
2024/01/31 01:43:18;;;;;;;20.80;15.83;;;6.70;99.90;;;;;;4978311;28;20469;-71
2024/01/31 01:45:45;;;;;;;20.00;14.60;;;6.70;99.90;;;;;;4979220;28;20950;-69
2024/01/31 01:48:16;;;;;;;20.87;14.53;;;6.70;99.90;;;;;;4978417;28;20559;-69
2024/01/31 01:50:45;;;;;;;22.87;15.30;;;6.70;99.90;;;;;;4978142;28;20454;-68
2024/01/31 01:53:12;;;;;;;25.33;15.67;;;6.60;99.90;;;;;;4978393;28;20527;-68
2024/01/31 01:55:42;;;;;;;19.90;15.47;;;6.60;99.90;;;;;;4978157;28;20458;-68
2024/01/31 01:58:10;;;;;;;20.30;14.50;;;6.70;99.90;;;;;;4978239;28;20914;-68
2024/01/31 02:00:40;;;;;;;21.10;16.37;;;6.70;99.90;;;;;;4977746;28;20465;-69
2024/01/31 02:03:08;;;;;;;23.07;15.60;;;6.60;99.90;;;;;;4976774;28;20466;-70
2024/01/31 02:05:39;;;;;;;19.07;14.50;;;6.60;99.90;;;;;;4977554;28;20466;-70
2024/01/31 02:08:07;;;;;;;21.00;15.40;;;6.50;82.30;;;;;;4977402;28;20494;-70
2024/01/31 02:10:34;;;;;;;21.83;15.90;;;6.60;99.90;;;;;;4978702;28;20946;-70
2024/01/31 02:13:02;;;;;;;20.80;14.50;;;6.60;99.90;;;;;;4978155;28;20466;-71
2024/01/31 02:15:29;;;;;;;23.37;15.37;;;6.60;84.30;;;;;;4977622;28;20501;-71
2024/01/31 02:17:56;;;;;;;22.93;15.93;;;6.50;99.90;;;;;;4977904;28;20497;-71
2024/01/31 02:20:24;;;;;;;21.70;16.80;;;6.50;99.90;;;;;;4978067;28;20514;-71
2024/01/31 02:22:55;;;;;;;21.23;15.37;;;6.50;99.90;;;;;;4977683;28;20470;-73
2024/01/31 02:25:22;;;;;;;23.30;15.53;;;6.50;99.90;;;;;;4977470;28;20874;-73
2024/01/31 02:27:49;;;;;;;21.27;16.60;;;6.50;99.90;;;;;;4976956;28;20807;-73
2024/01/31 02:30:17;;;;;;;23.40;15.90;;;6.50;99.90;;;;;;4977177;28;20943;-73
2024/01/31 02:32:44;;;;;;;21.37;16.53;;;6.40;99.90;;;;;;4977273;28;20495;-72
2024/01/31 02:35:11;;;;;;;20.90;15.37;;;6.40;99.90;;;;;;4977272;28;20573;-72
2024/01/31 02:37:43;;;;;;;26.60;17.13;;;6.40;99.90;;;;;;4977014;28;20463;-71
2024/01/31 02:40:12;;;;;;;28.83;20.07;;;6.40;99.90;;;;;;4977393;28;20824;-69
2024/01/31 02:42:39;;;;;;;27.50;18.03;;;6.40;99.90;;;;;;4977588;28;20808;-70
2024/01/31 02:45:08;;;;;;;26.77;19.17;;;6.30;99.90;;;;;;4977621;28;20836;-68
2024/01/31 02:47:35;;;;;;;28.83;20.10;;;6.30;99.90;;;;;;4977149;28;20470;-69
2024/01/31 02:50:03;;;;;;;26.60;17.70;;;6.30;99.90;;;;;;4976780;28;20568;-68
2024/01/31 02:52:30;;;;;;;25.30;18.30;;;6.30;99.90;;;;;;4977317;28;20513;-67
2024/01/31 02:54:58;;;;;;;27.90;19.90;;;6.30;99.90;;;;;;4977411;28;20462;-68
2024/01/31 02:57:26;;;;;;;31.90;21.17;;;6.30;99.90;;;;;;4976728;28;20476;-69
2024/01/31 02:59:54;;;;;;;29.43;21.77;;;6.20;99.90;;;;;;4977060;28;20458;-68
2024/01/31 03:02:21;;;;;;;31.10;22.17;;;6.30;99.90;;;;;;4977258;28;20895;-67
2024/01/31 03:04:48;;;;;;;30.90;20.43;;;6.20;99.90;;;;;;4977256;28;20532;-68
2024/01/31 03:07:15;;;;;;;28.97;21.50;;;6.10;99.90;;;;;;4976615;28;20490;-67
2024/01/31 03:09:43;;;;;;;31.83;22.90;;;6.20;99.90;;;;;;4976551;28;20497;-68
2024/01/31 03:12:10;;;;;;;31.60;21.10;;;6.20;99.90;;;;;;4976812;28;20489;-67
2024/01/31 03:14:39;;;;;;;27.23;18.07;;;6.10;99.90;;;;;;4976927;28;20805;-67
2024/01/31 03:17:06;;;;;;;21.47;16.50;;;6.10;99.90;;;;;;4976884;28;20552;-67
2024/01/31 03:19:35;;;;;;;21.13;14.83;;;6.10;99.90;;;;;;4976431;28;20553;-68
2024/01/31 03:22:05;;;;;;;18.90;14.57;;;6.00;50.20;;;;;;4976433;28;20473;-67
2024/01/31 03:24:33;;;;;;;18.00;13.63;;;6.00;1.00;;;;;;4977121;28;20901;-67
2024/01/31 03:27:00;;;;;;;20.30;13.23;;;6.00;1.00;;;;;;4976933;28;20462;-67
2024/01/31 03:29:27;;;;;;;20.40;14.03;;;6.00;1.00;;;;;;4976469;28;20468;-68
2024/01/31 03:31:55;;;;;;;21.63;14.03;;;5.90;1.00;;;;;;4976317;28;20466;-67
2024/01/31 03:34:23;;;;;;;20.13;13.30;;;5.90;1.00;;;;;;4976845;28;20732;-68
2024/01/31 03:36:50;;;;;;;22.27;14.57;;;5.80;1.00;;;;;;4976486;28;20441;-67
2024/01/31 03:39:18;;;;;;;19.17;13.23;;;5.80;1.00;;;;;;4975413;28;20557;-67
2024/01/31 03:41:46;;;;;;;21.43;14.50;;;5.90;1.00;;;;;;4975840;28;20473;-67
2024/01/31 03:44:14;;;;;;;21.00;14.33;;;5.90;1.00;;;;;;4976305;28;20891;-67
2024/01/31 03:46:41;;;;;;;21.83;14.90;;;5.90;1.00;;;;;;4976217;28;20477;-67
2024/01/31 03:49:10;;;;;;;19.47;13.80;;;5.90;51.00;;;;;;4976559;28;20455;-67
2024/01/31 03:51:37;;;;;;;23.20;15.00;;;5.90;98.10;;;;;;4976048;28;20556;-67
2024/01/31 03:54:04;;;;;;;25.20;14.20;;;5.90;99.90;;;;;;4976215;28;20488;-67
2024/01/31 03:56:31;;;;;;;20.40;15.07;;;5.90;99.90;;;;;;4976465;28;20477;-67
2024/01/31 03:58:59;;;;;;;23.70;15.30;;;5.80;99.90;;;;;;4976362;28;20484;-68
2024/01/31 04:01:26;;;;;;;20.30;14.50;;;5.90;99.90;;;;;;4975884;28;20505;-67
2024/01/31 04:03:53;;;;;;;23.03;14.63;;;5.90;99.90;;;;;;4975946;28;20860;-67
2024/01/31 04:06:22;;;;;;;19.80;13.40;;;5.90;99.90;;;;;;4975969;28;20564;-67
2024/01/31 04:08:49;;;;;;;19.67;13.93;;;5.90;99.90;;;;;;4975764;28;20577;-67
2024/01/31 04:11:16;;;;;;;23.13;14.93;;;5.90;99.90;;;;;;4975379;28;20547;-67
2024/01/31 04:13:45;;;;;;;21.57;14.60;;;5.90;99.90;;;;;;4975837;28;20462;-67
2024/01/31 04:16:15;;;;;;;18.00;14.37;;;5.90;99.90;;;;;;4975998;28;20775;-67
2024/01/31 04:18:43;;;;;;;25.07;13.87;;;5.90;99.90;;;;;;4975826;28;20473;-67
2024/01/31 04:21:10;;;;;;;22.30;14.00;;;6.00;99.90;;;;;;4975773;28;20564;-67
2024/01/31 04:23:38;;;;;;;19.83;14.03;;;5.90;97.00;;;;;;4975550;28;20476;-67
2024/01/31 04:26:06;;;;;;;19.53;13.97;;;5.90;1.00;;;;;;4975642;28;20913;-67
2024/01/31 04:28:33;;;;;;;17.47;13.07;;;5.90;1.00;;;;;;4975075;28;20468;-67
2024/01/31 04:31:00;;;;;;;17.93;13.43;;;6.00;1.00;;;;;;4975539;28;21008;-67
2024/01/31 04:33:27;;;;;;;21.53;15.00;;;6.00;1.00;;;;;;4975440;28;20945;-67
2024/01/31 04:35:54;;;;;;;15.47;12.37;;;6.00;1.00;;;;;;4975716;28;20461;-67
2024/01/31 04:38:22;;;;;;;20.53;15.07;;;6.10;99.90;;;;;;4975084;28;20494;-67
2024/01/31 04:40:50;;;;;;;22.30;14.47;;;6.10;99.90;;;;;;4974598;28;20486;-67
2024/01/31 04:43:18;;;;;;;17.10;13.97;;;6.10;99.90;;;;;;4973610;28;20553;-67
2024/01/31 04:45:45;;;;;;;21.83;14.40;;;6.10;99.90;;;;;;4974704;28;20502;-67
2024/01/31 04:48:12;;;;;;;17.03;13.63;;;6.00;99.90;;;;;;4975242;28;20466;-67
2024/01/31 04:50:39;;;;;;;17.53;13.77;;;6.00;99.90;;;;;;4974911;28;20497;-67
2024/01/31 04:53:07;;;;;;;19.00;12.97;;;6.00;99.90;;;;;;4978587;28;20471;-67
2024/01/31 04:55:34;;;;;;;18.67;14.13;;;5.90;74.40;;;;;;4978382;28;20965;-67
2024/01/31 04:58:02;;;;;;;16.40;12.80;;;5.90;92.60;;;;;;4978165;28;20476;-67
2024/01/31 05:00:30;;;;;;;16.93;13.37;;;6.00;69.50;;;;;;4978749;28;20836;-67
2024/01/31 05:02:57;;;;;;;17.23;13.47;;;6.00;30.30;;;;;;4978936;28;20552;-67
2024/01/31 05:05:24;;;;;;;20.27;14.90;;;5.90;10.20;;;;;;4978186;28;20500;-67
2024/01/31 05:07:51;;;;;;;18.90;13.80;;;5.90;14.40;;;;;;4978127;28;20486;-67
2024/01/31 05:10:20;;;;;;;23.40;14.80;;;5.90;22.10;;;;;;4978781;28;20499;-67
2024/01/31 05:12:47;;;;;;;18.83;13.73;;;5.90;1.00;;;;;;4978927;28;20515;-67
2024/01/31 05:15:16;;;;;;;18.57;12.50;;;5.80;1.00;;;;;;4978120;28;20902;-67
2024/01/31 05:17:43;;;;;;;15.83;13.33;;;5.90;12.00;;;;;;4978421;28;20919;-67
2024/01/31 05:20:11;;;;;;;17.93;14.27;;;5.90;3.60;;;;;;4977561;28;20843;-67
2024/01/31 05:22:38;;;;;;;18.03;14.17;;;5.90;41.00;;;;;;4979604;28;20558;-67
2024/01/31 05:25:07;;;;;;;20.10;14.97;;;5.90;1.00;;;;;;4997120;28;20469;-66
2024/01/31 05:27:35;;;;;;;20.70;13.90;;;5.80;11.70;;;;;;4996959;28;20738;-67
2024/01/31 05:30:03;;;;;;;22.40;14.70;;;5.80;2.60;;;;;;4997181;28;20608;-67
2024/01/31 05:32:32;;;;;;;19.90;15.53;;;5.80;3.50;;;;;;4997630;28;20547;-66
2024/01/31 05:34:59;;;;;;;18.00;15.10;;;5.80;7.70;;;;;;4996936;28;20784;-66
2024/01/31 05:37:26;;;;;;;19.80;14.77;;;5.90;26.40;;;;;;4990472;28;20565;-66
2024/01/31 05:39:53;;;;;;;18.73;14.67;;;5.90;1.00;;;;;;4987777;28;20530;-66
2024/01/31 05:42:21;;;;;;;20.10;13.67;;;5.80;1.00;;;;;;4996019;28;20473;-67
2024/01/31 05:44:48;;;;;;;21.33;15.70;;;5.80;1.00;;;;;;4995270;28;20489;-66
2024/01/31 05:47:16;;;;;;;18.90;12.93;;;5.80;1.00;;;;;;4995651;28;20469;-66
2024/01/31 05:49:44;;;;;;;24.30;15.20;;;5.80;1.00;;;;;;4995196;28;20506;-66
2024/01/31 05:52:11;;;;;;;19.23;14.73;;;5.80;1.00;;;;;;4995534;28;20977;-66
2024/01/31 05:54:40;;;;;;;19.23;14.30;;;5.70;1.00;;;;;;4995553;28;20556;-67
2024/01/31 05:57:07;;;;;;;20.27;13.80;;;5.80;1.00;;;;;;4995151;28;20485;-66
2024/01/31 05:59:39;;;;;;;18.60;13.20;;;5.80;24.70;;;;;;4994603;28;20824;-66
2024/01/31 06:02:06;;;;;;;19.20;14.23;;;5.90;97.20;;;;;;4994310;28;20853;-67
2024/01/31 06:04:33;;;;;;;19.57;14.77;;;5.90;62.80;;;;;;4993380;28;20484;-66
2024/01/31 06:07:02;;;;;;;20.73;13.47;;;5.80;22.60;;;;;;4995014;28;20514;-66
2024/01/31 06:09:30;;;;;;;17.80;13.90;;;5.80;51.70;;;;;;4994875;28;20511;-67
2024/01/31 06:11:57;;;;;;;21.93;15.70;;;5.80;36.00;;;;;;4995985;28;20496;-65
2024/01/31 06:14:24;;;;;;;17.00;14.07;;;5.80;17.00;;;;;;4996713;28;20800;-66
2024/01/31 06:16:51;;;;;;;22.73;13.80;;;5.90;84.80;;;;;;4996436;28;20431;-67
2024/01/31 06:19:19;;;;;;;18.90;13.20;;;5.90;43.60;;;;;;4996590;28;20501;-67
2024/01/31 06:21:46;;;;;;;19.57;13.67;;;5.90;17.00;;;;;;4995758;28;20506;-67
2024/01/31 06:24:15;;;;;;;14.20;11.57;;;5.90;1.00;;;;;;4996226;28;20472;-65
2024/01/31 06:26:42;;;;;;;16.30;11.03;;;5.80;1.00;;;;;;4996620;28;20469;-67
2024/01/31 06:29:17;;;;;;;17.40;12.53;;;5.90;1.00;;;;;;4996647;28;20491;-66
2024/01/31 06:31:46;;;;;;;15.50;12.10;;;5.90;1.00;;;;;;4996364;28;20500;-66
2024/01/31 06:34:14;;;;;;;16.77;12.27;;;5.90;1.00;;;;;;4996414;28;20468;-66
2024/01/31 06:36:41;;;;;;;18.87;12.50;;;5.90;99.90;;;;;;4995833;28;20881;-70
2024/01/31 06:39:09;;;;;;;20.50;11.80;;;5.90;99.90;;;;;;4999979;28;20518;-72
2024/01/31 06:41:38;;;;;;;16.40;12.10;;;5.80;99.90;;;;;;4992451;28;20932;-70
2024/01/31 06:44:05;;;;;;;15.00;11.53;;;5.80;99.90;;;;;;4981085;28;20767;-70
2024/01/31 06:46:33;;;;;;;17.67;13.10;;;5.90;99.90;;;;;;4977565;28;20653;-70
2024/01/31 06:49:00;;;;;;;21.13;13.63;;;5.80;99.90;;;;;;4978067;28;20462;-69
2024/01/31 06:51:28;;;;;;;20.23;13.63;;;5.80;99.90;;;;;;4979139;28;20578;-70
2024/01/31 06:53:55;;;;;;;18.53;13.53;;;5.90;1.00;;;;;;4976689;28;20466;-71
2024/01/31 06:56:22;;;;;;;20.17;13.30;;;5.90;1.00;;;;;;4982927;28;20488;-72
2024/01/31 06:58:51;;;;;;;20.70;13.90;;;5.80;1.00;;;;;;4977150;28;20519;-70
2024/01/31 07:01:19;;;;;;;32.80;23.77;;;5.90;1.00;;;;;;4978898;28;20436;-69
2024/01/31 07:03:46;;;;;;;19.90;15.53;;;5.90;1.00;;;;;;4980001;28;20473;-71
2024/01/31 07:06:15;;;;;;;22.77;17.23;;;5.90;1.00;;;;;;4976966;28;20497;-70
2024/01/31 07:08:42;;;;;;;31.40;20.70;;;5.90;1.00;;;;;;4979589;28;20509;-69
2024/01/31 07:11:10;;;;;;;29.40;15.63;;;5.90;1.00;;;;;;4981744;28;20529;-71
2024/01/31 07:13:38;;;;;;;25.13;16.37;;;5.90;1.00;;;;;;4976135;28;20919;-69
2024/01/31 07:16:09;;;;;;;22.47;15.00;;;5.90;1.00;;;;;;4980047;28;20501;-69
2024/01/31 07:18:36;;;;;;;26.10;16.07;;;6.00;1.00;;;;;;4979692;28;20473;-71
2024/01/31 07:21:04;;;;;;;25.53;15.77;;;6.00;1.00;;;;;;4977023;28;20462;-69
2024/01/31 07:23:32;;;;;;;20.40;15.73;;;5.90;1.00;;;;;;4979786;28;20474;-69
2024/01/31 07:25:59;;;;;;;21.47;14.90;;;5.90;1.00;;;;;;4979686;28;20474;-70
2024/01/31 07:28:26;;;;;;;22.47;15.43;;;5.90;1.00;;;;;;4976635;28;20461;-69
2024/01/31 07:30:54;;;;;;;21.43;14.83;;;5.90;1.00;;;;;;4979027;28;20494;-68
2024/01/31 07:33:23;;;;;;;22.17;15.50;;;5.90;1.00;;;;;;4981869;28;20470;-71
2024/01/31 07:35:51;;;;;;;20.87;15.17;;;5.90;99.90;;;;;;4976307;28;20436;-70
2024/01/31 07:38:18;;;;;;;23.27;15.60;;;5.90;99.90;;;;;;4976452;28;20466;-69
2024/01/31 07:40:45;;;;;;;27.40;17.63;;;5.90;99.90;;;;;;4974376;28;20484;-69
2024/01/31 07:43:12;;;;;;;25.63;16.90;;;5.90;99.90;;;;;;4976997;28;20462;-68
2024/01/31 07:45:41;;;;;;;27.03;18.10;;;5.90;99.90;;;;;;4981778;28;20461;-70
2024/01/31 07:48:08;;;;;;;27.77;20.30;;;5.90;99.90;;;;;;4974913;28;20469;-69
2024/01/31 07:50:37;;;;;;;30.07;19.63;;;5.90;99.90;;;;;;4975222;28;20497;-69
2024/01/31 07:53:04;;;;;;;28.07;19.83;;;5.90;99.90;;;;;;4975519;28;20466;-69
2024/01/31 07:55:32;;;;;;;30.57;20.90;;;5.90;1.00;;;;;;4975537;28;20473;-69
2024/01/31 07:57:59;;;;;;;33.63;22.43;;;5.90;1.00;;;;;;4976412;28;20463;-69
2024/01/31 08:00:27;;;;;;;32.70;22.53;;;6.00;1.00;;;;;;4980400;28;20464;-68
2024/01/31 08:02:54;;;;;;;32.70;22.30;;;6.00;1.00;;;;;;4983083;28;20511;-70
2024/01/31 08:05:22;;;;;;;37.00;23.80;;;6.00;1.00;;;;;;4975721;28;20472;-70
2024/01/31 08:07:51;;;;;;;37.10;22.53;;;6.00;1.00;;;;;;4975488;28;20486;-69
2024/01/31 08:10:18;;;;;;;33.03;21.40;;;6.00;1.00;;;;;;4975985;28;20440;-69
2024/01/31 08:12:46;;;;;;;35.20;23.10;;;6.10;1.00;;;;;;4975850;28;20462;-68
2024/01/31 08:15:14;;;;;;;34.20;23.67;;;6.10;1.00;;;;;;4975588;28;20561;-68
2024/01/31 08:17:41;;;;;;;37.53;24.70;;;6.10;1.00;;;;;;4975812;28;20523;-69
2024/01/31 08:20:10;;;;;;;34.50;23.17;;;6.10;1.00;;;;;;4975797;28;20611;-69
2024/01/31 08:22:37;;;;;;;34.70;22.67;;;6.10;1.00;;;;;;4975637;28;20553;-68
2024/01/31 08:25:07;;;;;;;35.67;22.03;;;6.20;1.00;;;;;;4974985;28;20470;-69
2024/01/31 08:27:35;;;;;;;34.33;22.57;;;6.20;99.90;;;;;;4974224;28;20544;-69
2024/01/31 08:30:03;;;;;;;32.90;21.70;;;6.20;99.90;;;;;;4975098;28;20465;-69
2024/01/31 08:32:33;;;;;;;30.33;21.80;;;6.20;99.90;;;;;;4974489;28;20571;-69
2024/01/31 08:35:00;;;;;;;31.87;20.30;;;6.20;99.90;;;;;;4975114;28;20561;-69
2024/01/31 08:37:28;;;;;;;30.43;20.13;;;6.20;99.90;;;;;;4975622;28;20883;-68
2024/01/31 08:39:55;;;;;;;31.87;21.77;;;6.20;99.90;;;;;;4976132;28;20838;-68
2024/01/31 08:42:28;;;;;;;28.23;19.70;;;6.20;99.90;;;;;;4975904;28;20462;-68
2024/01/31 08:44:55;;;;;;;30.03;20.73;;;6.30;99.90;;;;;;4976044;28;20564;-68
2024/01/31 08:47:23;;;;;;;27.47;20.17;;;6.30;99.90;;;;;;4975464;28;20887;-68
2024/01/31 08:49:50;;;;;;;32.50;21.53;;;6.30;99.90;;;;;;4975184;28;20458;-69
2024/01/31 08:52:18;;;;;;;32.20;21.10;;;6.30;99.90;;;;;;4975286;28;20500;-68
2024/01/31 08:54:46;;;;;;;28.00;19.10;;;6.30;99.90;;;;;;4975459;28;20466;-69
2024/01/31 08:57:13;;;;;;;29.47;20.37;;;6.20;99.90;;;;;;4974947;28;20469;-68
2024/01/31 08:59:42;;;;;;;27.67;19.93;;;6.20;99.90;;;;;;4975177;28;20505;-69
2024/01/31 09:02:09;;;;;;;26.87;19.47;;;6.30;99.90;;;;;;4975425;28;20556;-69
2024/01/31 09:04:37;;;;;;;27.73;20.63;;;6.30;1.00;;;;;;4975517;28;20796;-69
2024/01/31 09:07:04;;;;;;;29.00;18.87;;;6.40;99.90;;;;;;4974775;28;20489;-69
2024/01/31 09:09:33;;;;;;;26.77;18.73;;;6.40;99.90;;;;;;4974905;28;20462;-69
2024/01/31 09:12:00;;;;;;;27.30;19.20;;;6.40;99.90;;;;;;4974765;28;20537;-69
2024/01/31 09:14:28;;;;;;;28.90;19.50;;;6.40;1.00;;;;;;4974842;28;20463;-69
2024/01/31 09:16:57;;;;;;;29.63;20.10;;;6.40;2.20;;;;;;4974983;28;20501;-70
2024/01/31 09:19:25;;;;;;;28.40;19.70;;;6.50;13.80;;;;;;4974547;28;20462;-70
2024/01/31 09:21:52;;;;;;;27.67;19.40;;;6.50;1.00;;;;;;4974944;28;20462;-69
2024/01/31 09:24:20;;;;;;;28.10;19.70;;;6.50;3.90;;;;;;4974989;28;20473;-69
2024/01/31 09:26:47;;;;;;;32.70;20.00;;;6.50;99.90;;;;;;4975270;28;20465;-69
2024/01/31 09:29:15;;;;;;;26.30;18.67;;;6.50;64.80;;;;;;4974918;28;20473;-69
2024/01/31 09:31:42;;;;;;;26.60;19.47;;;6.50;20.70;;;;;;4975855;28;20493;-68
2024/01/31 09:34:11;;;;;;;29.87;20.90;;;6.50;29.30;;;;;;4975992;28;20523;-68
2024/01/31 09:36:38;;;;;;;29.50;19.37;;;6.50;36.60;;;;;;4975546;28;20469;-68
2024/01/31 09:39:06;;;;;;;31.47;20.60;;;6.50;46.80;;;;;;4979736;28;20461;-68
2024/01/31 09:41:33;;;;;;;75.57;37.53;;;6.60;26.50;;;;;;4980436;28;20466;-67
2024/01/31 09:44:00;;;;;;;43.50;24.27;;;6.60;6.90;;;;;;4979041;28;20458;-67
2024/01/31 09:46:28;;;;;;;32.73;20.77;;;6.70;1.00;;;;;;4980435;28;20458;-67
2024/01/31 09:48:55;;;;;;;41.67;24.67;;;6.70;1.00;;;;;;4980634;28;20472;-67
2024/01/31 09:51:26;;;;;;;43.90;28.13;;;6.70;1.00;;;;;;4980732;28;20536;-67
2024/01/31 09:53:57;;;;;;;34.03;23.40;;;6.70;99.90;;;;;;4980845;28;20466;-67
2024/01/31 09:56:27;;;;;;;29.13;18.23;;;6.70;99.90;;;;;;4982079;28;20504;-67
2024/01/31 09:58:55;;;;;;;32.03;22.00;;;6.70;99.90;;;;;;4981204;28;20922;-67
2024/01/31 10:01:24;;;;;;;27.87;18.63;;;6.70;99.90;;;;;;4980877;28;20462;-67
2024/01/31 10:03:52;;;;;;;28.07;20.60;;;6.70;99.90;;;;;;4978986;28;20462;-66
2024/01/31 10:06:20;;;;;;;26.23;18.20;;;6.70;1.00;;;;;;4979939;28;20466;-66
2024/01/31 10:08:49;;;;;;;27.43;18.90;;;6.70;99.90;;;;;;4980217;28;20486;-66
2024/01/31 10:11:17;;;;;;;24.60;17.67;;;6.80;1.00;;;;;;4981738;28;20523;-67
2024/01/31 10:13:44;;;;;;;26.77;17.40;;;6.70;1.00;;;;;;4981178;28;20557;-66
2024/01/31 10:16:12;;;;;;;29.07;19.17;;;6.70;1.00;;;;;;4981305;28;20512;-66
2024/01/31 10:18:40;;;;;;;29.23;17.60;;;6.70;1.00;;;;;;4980238;28;20466;-66
2024/01/31 10:21:07;;;;;;;29.80;18.80;;;6.80;1.00;;;;;;4980682;28;20822;-66
2024/01/31 10:23:35;;;;;;;24.97;18.17;;;6.80;1.00;;;;;;4979981;28;20758;-66
2024/01/31 10:26:04;;;;;;;23.60;16.10;;;6.80;1.00;;;;;;4980731;28;20466;-66
2024/01/31 10:28:32;;;;;;;29.70;17.43;;;6.80;1.00;;;;;;4980082;28;20557;-66
2024/01/31 10:31:00;;;;;;;28.10;17.43;;;6.80;1.00;;;;;;4979682;28;20922;-65
2024/01/31 10:33:28;;;;;;;28.70;19.47;;;6.80;1.00;;;;;;4979797;28;20490;-66
2024/01/31 10:35:56;;;;;;;30.47;16.37;;;6.80;1.00;;;;;;4979248;28;20485;-66
2024/01/31 10:38:23;;;;;;;28.33;18.20;;;6.80;1.00;;;;;;4978128;28;20516;-66
2024/01/31 10:40:52;;;;;;;31.20;18.93;;;6.80;1.00;;;;;;4977228;28;20465;-66
2024/01/31 10:43:23;;;;;;;29.73;18.80;;;6.80;1.00;;;;;;4975034;28;20502;-66
2024/01/31 10:45:51;;;;;;;30.50;19.00;;;6.80;1.00;;;;;;4976242;28;20478;-66
2024/01/31 10:48:18;;;;;;;29.07;18.07;;;6.80;1.00;;;;;;4977028;28;20481;-66
2024/01/31 10:50:46;;;;;;;29.17;19.40;;;6.80;1.00;;;;;;4975004;28;20564;-66
2024/01/31 10:53:14;;;;;;;27.23;19.00;;;6.80;1.00;;;;;;4976392;28;20494;-65
2024/01/31 10:55:43;;;;;;;29.43;18.37;;;6.70;1.00;;;;;;4977035;28;20519;-66
2024/01/31 10:58:12;;;;;;;33.13;18.73;;;6.80;1.00;;;;;;4977990;28;20473;-66
2024/01/31 11:00:47;;;;;;;26.43;17.87;;;6.80;1.00;;;;;;4978045;28;20469;-66
2024/01/31 11:03:16;;;;;;;28.33;18.63;;;6.80;1.00;;;;;;4977780;28;20457;-65
2024/01/31 11:05:44;;;;;;;25.43;16.90;;;6.70;1.00;;;;;;4977209;28;20513;-65
2024/01/31 11:08:18;;;;;;;30.80;19.20;;;6.70;1.00;;;;;;4977420;28;20585;-65
2024/01/31 11:10:46;;;;;;;26.50;17.17;;;6.80;1.00;;;;;;4978095;28;20511;-66
2024/01/31 11:13:14;;;;;;;28.33;18.63;;;6.80;1.00;;;;;;4977495;28;20498;-65
2024/01/31 11:15:43;;;;;;;29.50;18.07;;;6.90;1.00;;;;;;4977633;28;20739;-66
2024/01/31 11:18:12;;;;;;;28.80;18.40;;;6.80;1.00;;;;;;4977598;28;20450;-65
2024/01/31 11:20:41;;;;;;;27.07;18.30;;;6.80;1.00;;;;;;4978018;28;20462;-66
2024/01/31 11:23:09;;;;;;;32.50;20.20;;;6.90;1.00;;;;;;4978176;28;20537;-66
2024/01/31 11:25:38;;;;;;;30.30;20.20;;;6.90;1.00;;;;;;4977570;28;20887;-65
2024/01/31 11:28:06;;;;;;;26.53;19.13;;;6.80;1.00;;;;;;4977639;28;20497;-66
2024/01/31 11:30:34;;;;;;;26.87;20.80;;;6.80;1.00;;;;;;4977425;28;20473;-65
2024/01/31 11:33:04;;;;;;;26.87;18.70;;;6.80;1.00;;;;;;4977768;28;20516;-66
2024/01/31 11:35:31;;;;;;;31.90;21.30;;;6.80;1.00;;;;;;4977035;28;20466;-66
2024/01/31 11:37:59;;;;;;;31.70;21.63;;;6.80;1.00;;;;;;4977791;28;20952;-66
2024/01/31 11:40:27;;;;;;;29.47;20.50;;;6.80;1.00;;;;;;4977600;28;20478;-66
2024/01/31 11:42:56;;;;;;;31.30;19.77;;;6.90;1.00;;;;;;4977979;28;20490;-65
2024/01/31 11:45:25;;;;;;;29.87;19.73;;;7.00;1.00;;;;;;4975781;28;20528;-65
2024/01/31 11:47:55;;;;;;;30.93;19.30;;;7.00;1.00;;;;;;4976198;28;20556;-65
2024/01/31 11:50:24;;;;;;;30.47;21.13;;;7.00;1.00;;;;;;4976873;28;20493;-65
2024/01/31 11:52:52;;;;;;;34.10;21.10;;;6.90;1.00;;;;;;4977451;28;20959;-65
2024/01/31 11:55:23;;;;;;;33.70;20.27;;;6.90;1.00;;;;;;4977646;28;20479;-65
2024/01/31 11:57:51;;;;;;;28.43;21.33;;;6.70;1.00;;;;;;4978152;28;20486;-66
2024/01/31 12:00:20;;;;;;;35.33;20.80;;;6.80;1.00;;;;;;4976900;28;20553;-65
2024/01/31 12:02:48;;;;;;;30.03;20.23;;;6.80;1.00;;;;;;4977223;28;20462;-65
2024/01/31 12:05:16;;;;;;;31.73;21.90;;;6.80;1.00;;;;;;4977192;28;20472;-65
2024/01/31 12:07:55;;;;;;;29.17;22.23;;;6.90;1.00;;;;;;4977348;28;20533;-66
2024/01/31 12:10:24;;;;;;;29.13;20.90;;;6.80;1.00;;;;;;4977625;28;20820;-65
2024/01/31 12:12:52;;;;;;;25.60;20.20;;;6.80;1.00;;;;;;4977219;28;20812;-65
2024/01/31 12:15:21;;;;;;;26.67;20.23;;;6.80;1.00;;;;;;4977175;28;20466;-66
2024/01/31 12:17:48;;;;;;;27.37;20.10;;;6.80;1.00;;;;;;4977132;28;21009;-65
2024/01/31 12:20:18;;;;;;;25.77;18.40;;;6.80;1.00;;;;;;4977129;28;20547;-65
2024/01/31 12:22:47;;;;;;;29.13;19.90;;;6.80;1.00;;;;;;4976853;28;20523;-65
2024/01/31 12:25:16;;;;;;;24.77;19.53;;;6.90;1.00;;;;;;4977335;28;20879;-65
2024/01/31 12:27:44;;;;;;;29.40;20.80;;;6.90;1.00;;;;;;4976696;28;20859;-66
2024/01/31 12:30:12;;;;;;;25.23;17.57;;;7.00;1.00;;;;;;4976566;28;20462;-65
2024/01/31 12:32:39;;;;;;;25.57;17.97;;;7.00;99.90;;;;;;4976769;28;20930;-65
2024/01/31 12:35:07;;;;;;;30.53;20.20;;;7.10;99.90;;;;;;4975329;28;20799;-60
2024/01/31 12:37:35;;;;;;;29.70;21.50;;;7.20;99.90;;;;;;4975597;28;20462;-63
2024/01/31 12:40:05;;;;;;;23.73;18.00;;;7.40;99.90;;;;;;4975509;28;20527;-63
2024/01/31 12:42:32;;;;;;;23.07;16.10;;;7.50;99.90;;;;;;4975468;28;20942;-63
2024/01/31 12:45:00;;;;;;;18.37;14.47;;;7.50;99.90;;;;;;4975543;28;20465;-63